createdAt,value
2022-08-23T00:02:23.251Z,95979.52
2022-08-23T00:05:08.305Z,95977.97
2022-08-23T00:07:44.172Z,95975.11
2022-08-23T00:10:16.510Z,95971.96
2022-08-23T00:12:47.501Z,95975.18
2022-08-23T00:15:44.860Z,95976.71
2022-08-23T00:18:17.287Z,95975.55
2022-08-23T00:20:48.006Z,95981.95
2022-08-23T00:23:18.328Z,95980.18
2022-08-23T00:25:48.637Z,95983.12
2022-08-23T00:28:18.800Z,95990.23
2022-08-23T00:30:48.910Z,95986.91
2022-08-23T00:33:19.158Z,95987.86
2022-08-23T00:35:49.303Z,95997.67
2022-08-23T00:38:34.272Z,96004.42
2022-08-23T00:41:04.989Z,96010.59
2022-08-23T00:44:01.188Z,96012.40
2022-08-23T00:47:10.199Z,96010.00
2022-08-23T00:49:41.438Z,96008.45
2022-08-23T00:52:41.467Z,96012.52
2022-08-23T00:55:12.010Z,96020.73
2022-08-23T00:57:41.858Z,96025.92
2022-08-23T01:00:15.750Z,96029.55
2022-08-23T01:02:48.941Z,96032.66
2022-08-23T01:05:25.405Z,96032.92
2022-08-23T01:08:00.677Z,96037.69
2022-08-23T01:10:32.418Z,96029.81
2022-08-23T01:13:16.164Z,96026.98
2022-08-23T01:16:01.666Z,96021.69
2022-08-23T01:18:33.536Z,96016.70
2022-08-23T01:21:42.206Z,96009.12
2022-08-23T01:24:19.106Z,95998.74
2022-08-23T01:27:09.217Z,95995.84
2022-08-23T01:29:40.895Z,95994.84
2022-08-23T01:32:12.876Z,95994.56
2022-08-23T01:34:45.929Z,96003.60
2022-08-23T01:37:23.138Z,96010.94
2022-08-23T01:39:54.632Z,96012.26
2022-08-23T01:42:25.690Z,96010.08
2022-08-23T01:44:55.411Z,96001.10
2022-08-23T01:47:25.933Z,95994.93
2022-08-23T01:49:57.236Z,95988.30
2022-08-23T01:52:28.528Z,95983.90
2022-08-23T01:54:59.112Z,95983.11
2022-08-23T01:57:30.516Z,95984.04
2022-08-23T02:00:01.831Z,95995.48
2022-08-23T02:02:32.604Z,95996.88
2022-08-23T02:05:02.040Z,95992.67
2022-08-23T02:07:33.192Z,95989.42
2022-08-23T02:10:03.628Z,95993.35
2022-08-23T02:12:33.744Z,95997.96
2022-08-23T02:15:16.787Z,96005.92
2022-08-23T02:17:51.508Z,96005.08
2022-08-23T02:20:21.438Z,96009.77
2022-08-23T02:22:51.703Z,96009.68
2022-08-23T02:25:21.637Z,96011.27
2022-08-23T02:27:51.858Z,96012.67
2022-08-23T02:30:22.175Z,96008.81
2022-08-23T02:32:53.186Z,96006.27
2022-08-23T02:35:24.626Z,96007.46
2022-08-23T02:37:55.050Z,96010.20
2022-08-23T02:40:24.931Z,96022.17
2022-08-23T02:42:55.115Z,96020.96
2022-08-23T02:45:25.289Z,96027.17
2022-08-23T02:47:57.450Z,96033.14
2022-08-23T02:50:30.100Z,96043.13
2022-08-23T02:53:00.573Z,96044.60
2022-08-23T02:55:30.431Z,96044.88
2022-08-23T02:58:00.699Z,96047.98
2022-08-23T03:00:30.911Z,96052.89
2022-08-23T03:03:02.410Z,96062.06
2022-08-23T03:05:33.476Z,96064.35
2022-08-23T03:08:04.667Z,96067.24
2022-08-23T03:10:44.101Z,96064.93
2022-08-23T03:13:14.866Z,96069.00
2022-08-23T03:15:44.645Z,96068.81
2022-08-23T03:18:14.447Z,96072.61
2022-08-23T03:20:45.099Z,96076.04
2022-08-23T03:23:15.045Z,96086.19
2022-08-23T03:25:45.412Z,96091.96
2022-08-23T03:28:36.900Z,96098.25
2022-08-23T03:31:08.708Z,96101.91
2022-08-23T03:33:45.138Z,96102.41
2022-08-23T03:36:14.146Z,96105.98
2022-08-23T03:38:45.212Z,96097.66
2022-08-23T03:41:16.483Z,96094.15
2022-08-23T03:43:46.293Z,96090.88
2022-08-23T03:46:24.092Z,96089.48
2022-08-23T03:49:02.662Z,96090.68
2022-08-23T03:51:39.212Z,96094.15
2022-08-23T03:54:09.327Z,96100.13
2022-08-23T03:56:50.621Z,96095.27
2022-08-23T03:59:21.041Z,96093.58
2022-08-23T04:01:50.550Z,96097.55
2022-08-23T04:04:20.454Z,96092.61
2022-08-23T04:07:08.922Z,96094.61
2022-08-23T04:09:38.759Z,96096.16
2022-08-23T04:12:17.297Z,96097.33
2022-08-23T04:14:47.098Z,96098.77
2022-08-23T04:17:16.662Z,96102.30
2022-08-23T04:19:45.893Z,96103.13
2022-08-23T04:22:17.325Z,96103.19
2022-08-23T04:24:47.908Z,96103.81
2022-08-23T04:27:18.688Z,96111.05
2022-08-23T04:29:50.751Z,96114.64
2022-08-23T04:32:26.551Z,96111.06
2022-08-23T04:34:59.821Z,96102.66
2022-08-23T04:37:30.882Z,96105.55
2022-08-23T04:40:19.665Z,96104.68
2022-08-23T04:42:49.863Z,96103.14
2022-08-23T04:45:19.914Z,96104.86
2022-08-23T04:47:51.864Z,96110.71
2022-08-23T04:50:23.289Z,96112.13
2022-08-23T04:53:12.257Z,96110.33
2022-08-23T04:55:52.806Z,96118.41
2022-08-23T04:58:23.387Z,96121.35
2022-08-23T05:00:55.358Z,96121.86
2022-08-23T05:03:30.120Z,96121.45
2022-08-23T05:06:01.602Z,96119.36
2022-08-23T05:08:37.461Z,96120.55
2022-08-23T05:11:10.402Z,96120.67
2022-08-23T05:13:40.328Z,96127.81
2022-08-23T05:16:11.453Z,96134.73
2022-08-23T05:18:46.024Z,96132.32
2022-08-23T05:21:21.185Z,96129.89
2022-08-23T05:23:54.779Z,96132.35
2022-08-23T05:26:27.111Z,96135.43
2022-08-23T05:28:59.351Z,96139.81
2022-08-23T05:31:34.425Z,96134.88
2022-08-23T05:34:06.166Z,96139.64
2022-08-23T05:36:48.435Z,96139.52
2022-08-23T05:39:35.872Z,96133.86
2022-08-23T05:42:14.479Z,96136.19
2022-08-23T05:44:45.881Z,96137.40
2022-08-23T05:47:17.586Z,96137.42
2022-08-23T05:50:09.258Z,96138.34
2022-08-23T05:52:40.119Z,96138.36
2022-08-23T05:55:10.838Z,96141.28
2022-08-23T05:57:42.839Z,96136.27
2022-08-23T06:00:15.570Z,96138.60
2022-08-23T06:02:56.620Z,96139.02
2022-08-23T06:05:26.911Z,96138.13
2022-08-23T06:07:59.548Z,96136.83
2022-08-23T06:10:29.874Z,96133.98
2022-08-23T06:13:04.716Z,96134.41
2022-08-23T06:15:34.779Z,96135.84
2022-08-23T06:18:05.772Z,96134.48
2022-08-23T06:20:37.527Z,96135.27
2022-08-23T06:23:08.719Z,96134.27
2022-08-23T06:25:42.641Z,96134.13
2022-08-23T06:28:18.919Z,96135.67
2022-08-23T06:30:58.451Z,96137.26
2022-08-23T06:33:38.588Z,96142.83
2022-08-23T06:36:27.901Z,96144.80
2022-08-23T06:39:27.879Z,96144.82
2022-08-23T06:42:36.419Z,96141.13
2022-08-23T06:45:06.762Z,96139.45
2022-08-23T06:47:51.410Z,96135.30
2022-08-23T06:50:21.379Z,96130.00
2022-08-23T06:53:11.308Z,96129.88
2022-08-23T06:55:48.728Z,96133.23
2022-08-23T06:58:30.682Z,96130.77
2022-08-23T07:01:45.666Z,96128.90
2022-08-23T07:04:25.335Z,96137.52
2022-08-23T07:07:37.627Z,96135.74
2022-08-23T07:10:15.282Z,96138.34
2022-08-23T07:12:44.898Z,96136.10
2022-08-23T07:15:15.315Z,96135.02
2022-08-23T07:17:51.763Z,96129.77
2022-08-23T07:20:21.498Z,96134.29
2022-08-23T07:22:51.696Z,96127.52
2022-08-23T07:25:20.936Z,96130.84
2022-08-23T07:27:56.479Z,96126.39
2022-08-23T07:30:27.096Z,96125.06
2022-08-23T07:32:57.243Z,96125.23
2022-08-23T07:35:31.135Z,96126.84
2022-08-23T07:38:03.094Z,96130.87
2022-08-23T07:40:38.813Z,96132.58
2022-08-23T07:43:12.353Z,96137.41
2022-08-23T07:45:43.614Z,96138.11
2022-08-23T07:48:14.374Z,96137.63
2022-08-23T07:51:11.629Z,96141.70
2022-08-23T07:53:45.802Z,96140.67
2022-08-23T07:56:21.251Z,96139.30
2022-08-23T07:59:22.284Z,96136.89
2022-08-23T08:02:06.272Z,96133.96
2022-08-23T08:04:37.916Z,96137.94
2022-08-23T08:07:19.270Z,96137.46
2022-08-23T08:09:51.864Z,96138.10
2022-08-23T08:12:23.354Z,96142.64
2022-08-23T08:14:54.162Z,96141.69
2022-08-23T08:17:27.875Z,96144.48
2022-08-23T08:20:13.850Z,96145.38
2022-08-23T08:23:07.489Z,96144.73
2022-08-23T08:26:11.781Z,96150.46
2022-08-23T08:28:44.971Z,96142.25
2022-08-23T08:31:14.938Z,96142.46
2022-08-23T08:33:44.630Z,96137.10
2022-08-23T08:36:42.359Z,96135.22
2022-08-23T08:39:21.378Z,96138.29
2022-08-23T08:42:04.851Z,96137.92
2022-08-23T08:44:50.179Z,96140.93
2022-08-23T08:47:46.425Z,96138.98
2022-08-23T08:50:20.221Z,96138.01
2022-08-23T08:53:29.813Z,96142.67
2022-08-23T08:56:32.478Z,96138.51
2022-08-23T08:59:23.306Z,96142.80
2022-08-23T09:01:55.550Z,96141.90
2022-08-23T09:04:32.125Z,96141.41
2022-08-23T09:07:14.419Z,96141.80
2022-08-23T09:09:53.488Z,96142.11
2022-08-23T09:12:58.528Z,96134.19
2022-08-23T09:16:10.082Z,96139.41
2022-08-23T09:18:39.510Z,96138.52
2022-08-23T09:21:11.244Z,96144.20
2022-08-23T09:23:47.082Z,96132.56
2022-08-23T09:26:32.984Z,96136.27
2022-08-23T09:29:22.837Z,96134.27
2022-08-23T09:32:03.866Z,96128.61
2022-08-23T09:34:36.617Z,96126.98
2022-08-23T09:37:23.391Z,96135.41
2022-08-23T09:40:19.706Z,96130.16
2022-08-23T09:43:06.505Z,96133.18
2022-08-23T09:45:38.898Z,96133.15
2022-08-23T09:48:15.246Z,96133.20
2022-08-23T09:50:58.784Z,96132.13
2022-08-23T09:53:29.851Z,96128.55
2022-08-23T09:56:13.636Z,96123.44
2022-08-23T09:58:47.501Z,96127.90
2022-08-23T10:01:34.371Z,96125.92
2022-08-23T10:04:19.856Z,96125.81
2022-08-23T10:06:50.791Z,96119.83
2022-08-23T10:09:34.489Z,96118.40
2022-08-23T10:12:07.484Z,96120.02
2022-08-23T10:14:37.132Z,96118.10
2022-08-23T10:17:35.369Z,96119.39
2022-08-23T10:20:44.432Z,96128.08
2022-08-23T10:23:43.105Z,96120.88
2022-08-23T10:26:30.336Z,96121.18
2022-08-23T10:29:39.451Z,96121.33
2022-08-23T10:32:37.909Z,96125.73
2022-08-23T10:35:36.844Z,96128.31
2022-08-23T10:38:25.022Z,96124.83
2022-08-23T10:41:07.660Z,96120.66
2022-08-23T10:44:05.462Z,96117.77
2022-08-23T10:46:44.409Z,96116.39
2022-08-23T10:49:16.731Z,96111.92
2022-08-23T10:51:51.801Z,96109.74
2022-08-23T10:55:09.843Z,96115.02
2022-08-23T10:57:42.100Z,96113.19
2022-08-23T11:00:19.191Z,96103.94
2022-08-23T11:03:03.315Z,96097.69
2022-08-23T11:05:39.505Z,96094.31
2022-08-23T11:08:47.748Z,96088.43
2022-08-23T11:11:43.500Z,96086.55
2022-08-23T11:14:49.804Z,96088.74
2022-08-23T11:17:32.172Z,96083.20
2022-08-23T11:20:09.473Z,96083.44
2022-08-23T11:22:58.048Z,96081.66
2022-08-23T11:25:27.677Z,96074.66
2022-08-23T11:28:30.446Z,96078.85
2022-08-23T11:31:13.601Z,96083.09
2022-08-23T11:33:48.683Z,96088.40
2022-08-23T11:36:23.549Z,96090.05
2022-08-23T11:38:56.789Z,96088.98
2022-08-23T11:41:31.209Z,96087.13
2022-08-23T11:44:03.735Z,96084.95
2022-08-23T11:46:36.224Z,96085.45
2022-08-23T11:49:24.419Z,96081.47
2022-08-23T11:52:19.688Z,96086.17
2022-08-23T11:55:17.945Z,96082.87
2022-08-23T11:57:52.531Z,96080.50
2022-08-23T12:00:58.037Z,96077.35
2022-08-23T12:03:36.236Z,96077.20
2022-08-23T12:06:12.566Z,96071.73
2022-08-23T12:08:55.983Z,96074.06
2022-08-23T12:11:26.248Z,96074.94
2022-08-23T12:13:59.834Z,96074.23
2022-08-23T12:16:34.318Z,96068.15
2022-08-23T12:19:13.676Z,96070.98
2022-08-23T12:21:48.309Z,96069.45
2022-08-23T12:24:22.478Z,96072.38
2022-08-23T12:27:07.606Z,96069.49
2022-08-23T12:29:59.179Z,96074.29
2022-08-23T12:32:37.175Z,96073.70
2022-08-23T12:35:33.239Z,96071.26
2022-08-23T12:38:40.027Z,96075.81
2022-08-23T12:41:31.822Z,96080.02
2022-08-23T12:44:08.385Z,96084.51
2022-08-23T12:46:42.805Z,96083.46
2022-08-23T12:49:34.813Z,96076.12
2022-08-23T12:52:11.179Z,96073.52
2022-08-23T12:54:50.954Z,96071.82
2022-08-23T12:57:27.692Z,96062.61
2022-08-23T13:00:16.411Z,96056.27
2022-08-23T13:03:05.488Z,96048.61
2022-08-23T13:05:45.903Z,96047.38
2022-08-23T13:08:34.352Z,96048.04
2022-08-23T13:11:09.000Z,96045.08
2022-08-23T13:13:43.023Z,96046.17
2022-08-23T13:16:43.035Z,96047.89
2022-08-23T13:19:18.034Z,96048.23
2022-08-23T13:21:47.355Z,96046.21
2022-08-23T13:24:38.386Z,96048.20
2022-08-23T13:27:15.915Z,96038.80
2022-08-23T13:30:03.418Z,96040.08
2022-08-23T13:32:51.163Z,96039.16
2022-08-23T13:35:30.912Z,96033.38
2022-08-23T13:38:10.444Z,96031.10
2022-08-23T13:41:05.561Z,96035.42
2022-08-23T13:43:48.339Z,96046.48
2022-08-23T13:46:29.423Z,96047.38
2022-08-23T13:49:03.315Z,96053.21
2022-08-23T13:51:37.008Z,96058.48
2022-08-23T13:54:11.057Z,96052.16
2022-08-23T13:56:49.906Z,96050.20
2022-08-23T13:59:26.839Z,96050.02
2022-08-23T14:02:16.736Z,96053.45
2022-08-23T14:04:47.468Z,96053.74
2022-08-23T14:07:17.871Z,96056.23
2022-08-23T14:09:51.973Z,96055.90
2022-08-23T14:12:29.309Z,96059.40
2022-08-23T14:15:02.673Z,96051.78
2022-08-23T14:17:40.830Z,96052.23
2022-08-23T14:23:10.763Z,96049.23
2022-08-23T14:25:42.336Z,96040.56
2022-08-23T14:28:13.068Z,96044.77
2022-08-23T14:30:43.370Z,96044.74
2022-08-23T14:33:13.723Z,96042.65
2022-08-23T14:35:44.495Z,96037.15
2022-08-23T14:38:15.541Z,96037.32
2022-08-23T14:40:53.863Z,96036.11
2022-08-23T14:43:23.414Z,96035.65
2022-08-23T14:45:58.003Z,96047.60
2022-08-23T14:48:28.461Z,96047.74
2022-08-23T14:50:58.094Z,96047.77
2022-08-23T14:53:30.128Z,96058.92
2022-08-23T14:56:20.617Z,96067.99
2022-08-23T14:58:51.847Z,96078.09
2022-08-23T15:01:22.359Z,96082.55
2022-08-23T15:03:53.673Z,96085.27
2022-08-23T15:06:23.771Z,96083.16
2022-08-23T15:08:53.668Z,96080.70
2022-08-23T15:14:15.215Z,96081.43
2022-08-23T15:16:45.419Z,96083.09
2022-08-23T15:19:16.737Z,96084.10
2022-08-23T15:21:45.907Z,96083.05
2022-08-23T15:28:45.080Z,96086.34
2022-08-23T15:31:17.021Z,96110.91
2022-08-23T15:33:47.021Z,96127.38
2022-08-23T15:36:18.854Z,96136.42
2022-08-23T15:38:50.681Z,96143.45
2022-08-23T15:41:20.470Z,96160.36
2022-08-23T15:43:50.307Z,96178.73
2022-08-23T15:46:23.748Z,96201.76
2022-08-23T15:49:05.000Z,96233.00
2022-08-23T15:51:35.207Z,96282.86
2022-08-23T15:54:08.010Z,96335.79
2022-08-23T16:01:34.773Z,96426.02
2022-08-23T16:04:06.513Z,96414.42
2022-08-23T16:06:38.829Z,96389.06
2022-08-23T16:09:18.560Z,96356.33
2022-08-23T16:11:49.865Z,96318.09
2022-08-23T16:14:20.402Z,96292.48
2022-08-23T16:16:50.143Z,96292.35
2022-08-23T16:19:19.620Z,96281.93
2022-08-23T16:21:53.974Z,96265.02
2022-08-23T16:24:27.983Z,96250.94
2022-08-23T16:26:57.369Z,96231.61
2022-08-23T16:29:32.509Z,96210.41
2022-08-23T16:32:04.056Z,96192.37
2022-08-23T16:34:35.153Z,96188.85
2022-08-23T16:37:07.426Z,96184.30
2022-08-23T16:39:38.171Z,96172.60
2022-08-23T16:42:08.041Z,96148.03
2022-08-23T16:44:38.266Z,96134.30
2022-08-23T16:47:10.714Z,96142.73
2022-08-23T16:49:44.210Z,96160.70
2022-08-23T16:52:17.833Z,96181.08
2022-08-23T16:54:50.787Z,96191.83
2022-08-23T16:57:20.462Z,96196.66
2022-08-23T16:59:51.076Z,96193.23
2022-08-23T17:02:30.835Z,96183.18
2022-08-23T17:05:00.765Z,96173.23
2022-08-23T17:07:31.252Z,96169.63
2022-08-23T17:10:01.558Z,96158.52
2022-08-23T17:12:32.084Z,96153.10
2022-08-23T17:15:03.239Z,96129.78
2022-08-23T17:17:33.638Z,96124.00
2022-08-23T17:20:06.813Z,96141.72
2022-08-23T17:22:35.801Z,96161.60
2022-08-23T17:25:07.325Z,96193.40
2022-08-23T17:27:45.501Z,96207.54
2022-08-23T17:30:21.796Z,96219.52
2022-08-23T17:32:52.279Z,96223.20
2022-08-23T17:35:28.443Z,96237.73
2022-08-23T17:38:06.094Z,96256.82
2022-08-23T17:40:40.509Z,96270.44
2022-08-23T17:43:12.466Z,96289.54
2022-08-23T17:45:48.473Z,96301.50
2022-08-23T17:48:22.451Z,96300.77
2022-08-23T17:50:52.363Z,96310.59
2022-08-23T17:53:20.923Z,96321.19
2022-08-23T17:55:50.264Z,96329.09
2022-08-23T17:58:20.289Z,96337.16
2022-08-23T18:00:49.779Z,96342.05
2022-08-23T18:03:19.251Z,96351.69
2022-08-23T18:05:49.277Z,96340.59
2022-08-23T18:08:19.708Z,96315.11
2022-08-23T18:10:50.855Z,96316.08
2022-08-23T18:13:19.946Z,96304.73
2022-08-23T18:15:49.427Z,96291.85
2022-08-23T18:18:18.752Z,96273.83
2022-08-23T18:20:49.084Z,96275.39
2022-08-23T18:23:19.085Z,96289.45
2022-08-23T18:25:49.206Z,96295.38
2022-08-23T18:28:18.525Z,96292.73
2022-08-23T18:30:56.041Z,96298.30
2022-08-23T18:33:31.498Z,96299.60
2022-08-23T18:36:03.815Z,96305.12
2022-08-23T18:38:34.106Z,96313.62
2022-08-23T18:41:04.382Z,96317.63
2022-08-23T18:43:37.518Z,96313.20
2022-08-23T18:46:07.402Z,96310.40
2022-08-23T18:48:38.455Z,96316.26
2022-08-23T18:51:14.039Z,96322.29
2022-08-23T18:53:47.557Z,96326.11
2022-08-23T18:56:17.743Z,96322.45
2022-08-23T18:58:48.361Z,96320.98
2022-08-23T19:01:30.818Z,96325.24
2022-08-23T19:04:01.117Z,96328.16
2022-08-23T19:06:31.505Z,96347.14
2022-08-23T19:09:01.352Z,96358.71
2022-08-23T19:11:31.759Z,96367.91
2022-08-23T19:14:02.922Z,96375.89
2022-08-23T19:16:34.194Z,96399.89
2022-08-23T19:19:05.758Z,96448.83
2022-08-23T19:21:35.722Z,96488.76
2022-08-23T19:24:06.090Z,96481.70
2022-08-23T19:26:36.988Z,96462.89
2022-08-23T19:29:09.006Z,96476.39
2022-08-23T19:31:43.900Z,96479.93
2022-08-23T19:34:15.172Z,96478.36
2022-08-23T19:36:51.270Z,96480.67
2022-08-23T19:39:30.712Z,96475.81
2022-08-23T19:42:01.208Z,96474.23
2022-08-23T19:44:33.046Z,96475.77
2022-08-23T19:47:05.750Z,96461.75
2022-08-23T19:49:36.254Z,96459.90
2022-08-23T19:52:07.947Z,96453.20
2022-08-23T19:54:37.947Z,96448.13
2022-08-23T19:57:10.444Z,96443.03
2022-08-23T19:59:40.749Z,96441.04
2022-08-23T20:02:14.585Z,96443.75
2022-08-23T20:04:44.257Z,96437.44
2022-08-23T20:07:14.582Z,96431.58
2022-08-23T20:09:44.805Z,96422.86
2022-08-23T20:12:16.885Z,96411.51
2022-08-23T20:14:46.369Z,96410.27
2022-08-23T20:17:17.616Z,96398.64
2022-08-23T20:19:47.724Z,96386.92
2022-08-23T20:22:37.363Z,96373.65
2022-08-23T20:25:08.564Z,96373.83
2022-08-23T20:27:38.279Z,96373.31
2022-08-23T20:30:10.564Z,96376.73
2022-08-23T20:32:40.891Z,96379.91
2022-08-23T20:35:12.868Z,96378.04
2022-08-23T20:37:42.925Z,96382.84
2022-08-23T20:40:14.950Z,96386.48
2022-08-23T20:42:44.247Z,96391.88
2022-08-23T20:45:14.329Z,96398.00
2022-08-23T20:47:44.613Z,96395.24
2022-08-23T20:50:14.360Z,96398.98
2022-08-23T20:52:44.569Z,96397.85
2022-08-23T20:55:16.343Z,96397.52
2022-08-23T20:57:45.697Z,96404.44
2022-08-23T21:00:16.217Z,96398.96
2022-08-23T21:02:46.191Z,96399.24
2022-08-23T21:05:15.682Z,96398.86
2022-08-23T21:07:46.186Z,96401.92
2022-08-23T21:10:15.861Z,96406.00
2022-08-23T21:12:45.989Z,96395.77
2022-08-23T21:15:15.435Z,96398.30
2022-08-23T21:17:47.759Z,96398.16
2022-08-23T21:20:18.020Z,96399.51
2022-08-23T21:22:48.110Z,96398.98
2022-08-23T21:25:17.410Z,96393.51
2022-08-23T21:27:47.935Z,96391.40
2022-08-23T21:30:17.974Z,96383.05
2022-08-23T21:32:47.514Z,96380.17
2022-08-23T21:35:16.296Z,96379.66
2022-08-23T21:37:46.492Z,96380.48
2022-08-23T21:40:15.932Z,96385.79
2022-08-23T21:42:49.473Z,96380.75
2022-08-23T21:45:18.709Z,96375.19
2022-08-23T21:47:48.125Z,96371.08
2022-08-23T21:50:18.720Z,96367.20
2022-08-23T21:52:56.548Z,96358.11
2022-08-23T22:23:15.782Z,96383.02
2022-08-23T22:25:45.734Z,96377.41
2022-08-23T22:28:14.345Z,96377.83
2022-08-23T22:30:44.869Z,96376.10
2022-08-23T22:33:14.856Z,96376.09
2022-08-23T22:35:48.972Z,96372.67
2022-08-23T22:38:18.716Z,96375.91
2022-08-23T22:40:52.765Z,96373.38
2022-08-23T22:43:22.079Z,96370.58
2022-08-23T22:46:01.038Z,96371.40
2022-08-23T22:48:33.062Z,96371.52
2022-08-23T22:51:13.148Z,96365.81
2022-08-23T22:53:50.693Z,96363.39
2022-08-23T22:56:23.559Z,96359.94
2022-08-23T22:58:55.304Z,96354.98
2022-08-23T23:01:28.325Z,96349.17
2022-08-23T23:04:01.793Z,96342.80
2022-08-23T23:06:32.041Z,96334.70
2022-08-23T23:09:01.272Z,96318.89
2022-08-23T23:11:31.378Z,96311.14
2022-08-23T23:14:00.698Z,96314.10
2022-08-23T23:16:31.100Z,96315.02
2022-08-23T23:19:20.863Z,96309.56
2022-08-23T23:21:53.278Z,96308.31
2022-08-23T23:24:30.515Z,96305.37
2022-08-23T23:27:02.860Z,96306.16
2022-08-23T23:29:33.632Z,96319.25
2022-08-23T23:32:03.150Z,96326.36
2022-08-23T23:34:33.212Z,96333.94
2022-08-23T23:37:03.270Z,96339.73
2022-08-23T23:39:32.646Z,96344.05
2022-08-23T23:42:01.246Z,96360.08
2022-08-23T23:44:31.938Z,96367.98
2022-08-23T23:47:02.472Z,96373.73
2022-08-23T23:49:33.481Z,96381.21
2022-08-23T23:52:07.616Z,96387.83
2022-08-23T23:54:41.206Z,96394.41
2022-08-23T23:57:10.919Z,96397.77
2022-08-23T23:59:41.517Z,96403.85
